Time;durP1;ratioP1;P1;durP2;ratioP2;P2;SDS_P1;SDS_P2;PMS_P1;PMS_P2;Temp;Humidity;BMP_temperature;BMP_pressure;BME280_temperature;BME280_humidity;BME280_pressure;Samples;Min_cycle;Max_cycle;Signal;HPM_P1;HPM_P2
2023/03/19 00:01:23;;;;;;;9.88;5.05;;;;;;;8.64;43.80;95151.94;5036940;28;20112;-73
2023/03/19 00:03:48;;;;;;;8.23;4.47;;;;;;;8.64;43.54;95146.63;5038718;28;20066;-72
2023/03/19 00:06:14;;;;;;;9.10;4.30;;;;;;;8.68;43.58;95147.94;5038993;28;20460;-72
2023/03/19 00:08:40;;;;;;;5.53;3.33;;;;;;;8.64;43.27;95143.97;5036860;28;20052;-72
2023/03/19 00:11:07;;;;;;;8.90;4.55;;;;;;;8.66;43.60;95139.31;5038354;28;20357;-72
2023/03/19 00:13:33;;;;;;;7.57;4.03;;;;;;;8.68;43.41;95139.97;5037536;28;20060;-72
2023/03/19 00:15:58;;;;;;;8.80;4.78;;;;;;;8.66;42.62;95141.94;5038594;28;20382;-72
2023/03/19 00:18:24;;;;;;;13.63;5.22;;;;;;;8.72;43.31;95140.41;5039497;28;20033;-72
2023/03/19 00:20:49;;;;;;;9.10;4.10;;;;;;;8.73;43.07;95142.06;5036060;28;20024;-73
2023/03/19 00:23:15;;;;;;;9.90;4.43;;;;;;;8.76;43.45;95144.38;5037673;28;20037;-72
2023/03/19 00:25:40;;;;;;;9.90;4.20;;;;;;;8.74;43.82;95157.00;5037451;28;20704;-73
2023/03/19 00:28:06;;;;;;;10.68;4.07;;;;;;;8.76;43.41;95152.31;5038870;28;20493;-73
2023/03/19 00:30:32;;;;;;;7.50;3.38;;;;;;;8.78;44.04;95151.13;5036466;28;20033;-72
2023/03/19 00:32:57;;;;;;;7.97;3.70;;;;;;;8.81;43.37;95152.63;5039808;28;20024;-73
2023/03/19 00:35:23;;;;;;;7.35;2.75;;;;;;;8.84;43.53;95154.91;5036155;28;20056;-73
2023/03/19 00:37:48;;;;;;;6.03;2.70;;;;;;;8.88;43.73;95145.59;5036297;28;20111;-73
2023/03/19 00:40:14;;;;;;;5.63;2.55;;;;;;;8.93;43.46;95151.22;5034932;28;20071;-73
2023/03/19 00:42:40;;;;;;;7.82;3.55;;;;;;;8.87;43.42;95149.25;5036399;28;20044;-72
2023/03/19 00:45:06;;;;;;;8.70;2.95;;;;;;;8.91;42.96;95155.03;5038333;28;20086;-73
2023/03/19 00:47:31;;;;;;;6.07;2.97;;;;;;;8.94;43.29;95154.66;5035471;28;20457;-73
2023/03/19 00:49:57;;;;;;;4.55;2.42;;;;;;;8.84;43.33;95151.44;5039053;28;20043;-73
2023/03/19 00:52:22;;;;;;;4.35;2.70;;;;;;;8.87;42.91;95154.56;5037931;28;20037;-73
2023/03/19 00:54:47;;;;;;;3.72;2.33;;;;;;;8.92;42.58;95154.03;5039391;28;20044;-73
2023/03/19 00:57:13;;;;;;;5.03;2.20;;;;;;;8.98;42.90;95156.03;5037861;28;20029;-73
2023/03/19 00:59:38;;;;;;;4.07;2.10;;;;;;;9.00;43.49;95153.16;5039027;28;20037;-73
2023/03/19 01:02:04;;;;;;;4.35;2.40;;;;;;;8.98;43.14;95156.03;5035453;28;20036;-73
2023/03/19 01:04:29;;;;;;;5.30;2.50;;;;;;;8.99;43.08;95156.81;5038775;28;20048;-72
2023/03/19 01:06:55;;;;;;;5.13;2.80;;;;;;;8.94;43.74;95157.31;5038430;28;20040;-73
2023/03/19 01:09:20;;;;;;;8.63;4.28;;;;;;;8.89;43.60;95155.22;5036903;28;20060;-73
2023/03/19 01:11:46;;;;;;;10.73;4.18;;;;;;;8.91;43.46;95155.84;5038082;28;20071;-73
2023/03/19 01:14:11;;;;;;;6.97;4.25;;;;;;;8.88;43.39;95155.41;5036807;28;20286;-73
2023/03/19 01:16:37;;;;;;;8.93;4.25;;;;;;;8.86;43.36;95155.56;5034540;28;20793;-73
2023/03/19 01:19:02;;;;;;;7.45;4.28;;;;;;;8.69;42.80;95165.50;5036700;28;20505;-72
2023/03/19 01:21:31;;;;;;;5.95;3.33;;;;;;;8.67;43.63;95162.19;5042294;28;20040;-73
2023/03/19 01:23:57;;;;;;;4.57;2.88;;;;;;;8.77;43.01;95161.97;5040792;28;20139;-73
2023/03/19 01:26:22;;;;;;;6.47;3.05;;;;;;;8.86;43.60;95157.41;5040795;28;20100;-72
2023/03/19 01:28:48;;;;;;;7.32;2.90;;;;;;;8.88;42.73;95160.72;5041241;28;20386;-73
2023/03/19 01:31:13;;;;;;;5.88;2.88;;;;;;;8.79;43.19;95162.59;5039094;28;20037;-73
2023/03/19 01:33:39;;;;;;;5.30;2.78;;;;;;;8.86;43.41;95165.34;5040638;28;20029;-73
2023/03/19 01:36:05;;;;;;;6.82;2.80;;;;;;;8.95;43.71;95164.34;5040252;28;20032;-73
2023/03/19 01:38:30;;;;;;;4.95;2.90;;;;;;;8.99;43.68;95164.78;5040288;28;20139;-72
2023/03/19 01:40:56;;;;;;;4.10;2.60;;;;;;;9.02;43.16;95156.47;5040404;28;20602;-73
2023/03/19 01:43:23;;;;;;;4.93;2.83;;;;;;;9.03;43.18;95161.59;5039031;28;20439;-73
2023/03/19 01:45:50;;;;;;;5.47;2.70;;;;;;;9.00;42.86;95148.69;5038718;28;20067;-73
2023/03/19 01:48:45;;;;;;;3.22;2.35;;;;;;;8.98;43.08;95158.69;5036607;28;20049;-73
2023/03/19 01:51:12;;;;;;;3.78;2.10;;;;;;;9.13;42.92;95155.22;5043863;28;20546;-73
2023/03/19 01:53:38;;;;;;;4.95;2.63;;;;;;;8.98;43.09;95157.84;5021696;28;20070;-73
2023/03/19 01:56:15;;;;;;;6.78;2.42;;;;;;;8.95;42.86;95156.38;5021425;28;20086;-73
2023/03/19 01:58:41;;;;;;;3.67;2.22;;;;;;;8.97;43.10;95149.03;5037260;28;20259;-72
2023/03/19 02:01:06;;;;;;;4.15;2.20;;;;;;;9.00;43.10;95163.78;5037077;28;20341;-73
2023/03/19 02:03:32;;;;;;;4.40;2.30;;;;;;;8.97;42.86;95161.50;5037124;28;20048;-73
2023/03/19 02:05:58;;;;;;;3.25;2.30;;;;;;;9.01;42.62;95160.13;5038365;28;20029;-73
2023/03/19 02:08:23;;;;;;;4.32;2.50;;;;;;;8.81;42.70;95156.09;5035899;28;20399;-73
2023/03/19 02:10:48;;;;;;;3.53;2.28;;;;;;;9.01;42.47;95157.50;5037352;28;20037;-73
2023/03/19 02:13:14;;;;;;;3.63;2.15;;;;;;;9.13;42.51;95160.53;5021558;28;20054;-73
2023/03/19 02:15:39;;;;;;;2.80;2.10;;;;;;;9.19;42.47;95157.16;5035502;28;20036;-73
2023/03/19 02:18:05;;;;;;;2.85;2.40;;;;;;;9.17;42.50;95154.69;5038414;28;20029;-73
2023/03/19 02:20:50;;;;;;;3.60;2.30;;;;;;;9.18;43.72;95151.00;5036899;28;20048;-73
2023/03/19 02:23:25;;;;;;;5.20;2.30;;;;;;;9.18;43.24;95152.84;5023284;28;20112;-73
2023/03/19 02:25:55;;;;;;;4.55;2.30;;;;;;;9.10;42.35;95150.25;5038939;28;20115;-73
2023/03/19 02:28:21;;;;;;;6.25;2.20;;;;;;;9.12;43.17;95151.75;5037443;28;20207;-73
2023/03/19 02:30:47;;;;;;;3.60;2.20;;;;;;;9.11;42.72;95154.56;5037974;28;22821;-73
2023/03/19 02:33:13;;;;;;;3.90;2.20;;;;;;;9.14;42.72;95160.34;5038038;28;20033;-73
2023/03/19 02:35:39;;;;;;;4.43;2.47;;;;;;;9.20;41.99;95151.66;5036904;28;20387;-73
2023/03/19 02:38:04;;;;;;;4.65;2.38;;;;;;;9.22;42.58;95154.13;5020948;28;20032;-73
2023/03/19 02:40:33;;;;;;;6.07;2.22;;;;;;;9.22;42.67;95148.84;5002577;28;20040;-73
2023/03/19 02:42:58;;;;;;;;;;;;;;;9.16;42.93;95153.03;5037272;28;20111;-73
2023/03/19 02:45:27;;;;;;;5.90;2.27;;;;;;;9.23;43.14;95150.47;5038487;28;19917;-73
2023/03/19 02:47:52;;;;;;;3.35;2.35;;;;;;;9.16;42.17;95147.72;5015275;28;20621;-73
2023/03/19 02:50:18;;;;;;;3.58;2.03;;;;;;;9.27;43.06;95146.44;5038557;28;20307;-73
2023/03/19 02:52:43;;;;;;;3.55;2.10;;;;;;;9.24;42.95;95146.00;5039883;28;20051;-73
2023/03/19 02:55:09;;;;;;;3.72;2.08;;;;;;;9.22;43.31;95148.84;5039460;28;20036;-73
2023/03/19 02:57:34;;;;;;;4.63;2.63;;;;;;;9.24;43.33;95160.09;5037400;28;20437;-73
2023/03/19 03:00:00;;;;;;;8.15;2.55;;;;;;;9.13;42.86;95152.56;5036400;28;20376;-73
2023/03/19 03:02:25;;;;;;;5.07;2.42;;;;;;;9.05;42.96;95151.63;5036699;28;20040;-71
2023/03/19 03:04:51;;;;;;;4.13;2.30;;;;;;;9.03;43.00;95156.28;5037624;28;20036;-73
2023/03/19 03:07:16;;;;;;;4.63;2.42;;;;;;;9.06;42.87;95155.94;5037074;28;20033;-73
2023/03/19 03:09:42;;;;;;;3.65;2.20;;;;;;;9.08;43.26;95155.75;5036348;28;20044;-73
2023/03/19 03:12:08;;;;;;;4.28;2.40;;;;;;;9.07;43.04;95162.06;5037736;28;20040;-73
2023/03/19 03:14:34;;;;;;;5.28;2.30;;;;;;;9.08;43.12;95156.56;5038093;28;20047;-72
2023/03/19 03:16:59;;;;;;;4.38;2.50;;;;;;;9.04;42.36;95155.28;5036657;28;20041;-73
2023/03/19 03:19:25;;;;;;;4.82;2.40;;;;;;;9.04;42.27;95157.09;5036306;28;20045;-73
2023/03/19 03:21:50;;;;;;;4.80;2.35;;;;;;;9.02;42.75;95161.78;5036842;28;20508;-73
2023/03/19 03:24:16;;;;;;;5.70;2.50;;;;;;;8.95;43.19;95164.34;5038341;28;20071;-73
2023/03/19 03:26:43;;;;;;;4.72;2.08;;;;;;;9.03;42.78;95166.91;5035839;28;20037;-72
2023/03/19 03:29:08;;;;;;;5.78;2.10;;;;;;;9.00;43.08;95175.22;5036561;28;20044;-73
2023/03/19 03:31:33;;;;;;;3.42;2.20;;;;;;;9.12;42.96;95178.31;5034681;28;20049;-73
2023/03/19 03:34:00;;;;;;;4.22;2.40;;;;;;;9.18;42.22;95182.88;5037413;28;20037;-73
2023/03/19 03:36:26;;;;;;;6.43;2.67;;;;;;;9.20;42.57;95177.38;5019247;28;20055;-73
2023/03/19 03:38:52;;;;;;;2.80;2.10;;;;;;;9.07;42.49;95181.47;5036471;28;20515;-73
2023/03/19 03:41:17;;;;;;;5.78;2.50;;;;;;;9.01;42.94;95182.19;5035599;28;20028;-73
2023/03/19 03:43:43;;;;;;;4.38;2.20;;;;;;;8.92;43.29;95183.25;5034899;28;20462;-73
2023/03/19 03:46:08;;;;;;;2.83;2.10;;;;;;;8.83;43.62;95187.78;5037532;28;20028;-73
2023/03/19 03:48:34;;;;;;;2.75;2.15;;;;;;;8.76;43.65;95189.50;5036470;28;20049;-73
2023/03/19 03:51:00;;;;;;;3.58;2.17;;;;;;;8.66;43.48;95189.72;5018625;28;20078;-73
2023/03/19 03:53:25;;;;;;;5.28;2.30;;;;;;;8.53;42.96;95185.81;5036078;28;20120;-73
2023/03/19 03:55:51;;;;;;;3.90;2.30;;;;;;;8.58;43.72;95182.66;5035954;28;20045;-73
2023/03/19 03:58:16;;;;;;;3.35;2.38;;;;;;;8.57;43.70;95173.84;5018722;28;20315;-73
2023/03/19 04:00:41;;;;;;;4.00;2.15;;;;;;;8.52;44.49;95184.19;5034841;28;20049;-73
2023/03/19 04:03:07;;;;;;;3.95;2.35;;;;;;;8.49;43.77;95176.56;5034507;28;20045;-73
2023/03/19 04:05:33;;;;;;;5.10;2.40;;;;;;;8.38;44.62;95183.09;5002871;28;20029;-73
2023/03/19 04:07:58;;;;;;;4.15;2.03;;;;;;;8.31;44.30;95176.84;5036042;28;20048;-73
2023/03/19 04:10:23;;;;;;;4.13;2.20;;;;;;;8.22;44.07;95183.19;5038102;28;20040;-73
2023/03/19 04:12:49;;;;;;;4.10;2.30;;;;;;;8.11;44.14;95181.75;5036987;28;20068;-73
2023/03/19 04:15:15;;;;;;;3.70;2.30;;;;;;;8.03;43.80;95180.78;5034972;28;20070;-73
2023/03/19 04:17:41;;;;;;;6.10;2.40;;;;;;;8.02;44.23;95184.44;5035248;28;20076;-73
2023/03/19 04:20:07;;;;;;;5.90;2.50;;;;;;;7.97;44.56;95184.13;5035648;28;20140;-73
2023/03/19 04:22:32;;;;;;;5.18;2.45;;;;;;;7.89;44.31;95189.47;5035476;28;20502;-72
2023/03/19 04:24:58;;;;;;;6.05;2.50;;;;;;;7.86;44.61;95187.16;5036404;28;20408;-73
2023/03/19 04:27:23;;;;;;;69.40;43.85;;;;;;;7.68;46.05;95198.78;5034971;28;20473;-72
2023/03/19 04:29:49;;;;;;;20.63;14.20;;;;;;;7.88;45.60;95201.06;5037665;28;20033;-73
2023/03/19 04:32:14;;;;;;;6.93;3.60;;;;;;;7.90;44.89;95188.47;5035259;28;20437;-73
2023/03/19 04:34:40;;;;;;;5.05;3.08;;;;;;;8.01;44.89;95188.09;5036990;28;20059;-72
2023/03/19 04:37:06;;;;;;;3.28;2.30;;;;;;;8.05;44.50;95177.97;5035486;28;20033;-73
2023/03/19 04:39:32;;;;;;;2.90;2.10;;;;;;;8.08;44.48;95184.75;5035071;28;20079;-73
2023/03/19 04:41:58;;;;;;;3.13;2.20;;;;;;;8.08;44.66;95177.63;5034794;28;20033;-73
2023/03/19 04:44:23;;;;;;;6.13;2.38;;;;;;;8.03;44.68;95178.13;5035110;28;20119;-73
2023/03/19 04:46:48;;;;;;;3.17;2.20;;;;;;;8.00;44.39;95186.44;5036092;28;20110;-72
2023/03/19 04:49:14;;;;;;;3.67;2.40;;;;;;;7.90;45.23;95181.34;5037248;28;20044;-73
2023/03/19 04:51:40;;;;;;;4.65;2.40;;;;;;;7.93;45.37;95188.13;5035500;28;20049;-73
2023/03/19 04:54:06;;;;;;;4.78;2.50;;;;;;;7.97;45.34;95181.50;5018811;28;20397;-73
2023/03/19 04:56:31;;;;;;;4.18;2.42;;;;;;;8.00;44.71;95189.09;5039675;28;20041;-73
2023/03/19 04:58:57;;;;;;;3.42;2.20;;;;;;;7.98;45.05;95183.13;5040047;28;20474;-73
2023/03/19 05:01:22;;;;;;;3.72;2.13;;;;;;;8.03;45.03;95177.31;5042416;28;20406;-73
2023/03/19 05:03:48;;;;;;;5.03;2.25;;;;;;;8.05;44.97;95180.59;5041199;28;20090;-73
2023/03/19 05:06:14;;;;;;;3.95;2.08;;;;;;;8.10;45.15;95186.25;5043065;28;20059;-73
2023/03/19 05:08:39;;;;;;;3.45;1.92;;;;;;;8.07;44.69;95199.84;5039063;28;20041;-73
2023/03/19 05:11:05;;;;;;;3.80;2.05;;;;;;;8.25;44.71;95196.09;5042421;28;20086;-73
2023/03/19 05:13:30;;;;;;;4.32;2.20;;;;;;;8.23;44.59;95196.25;5041416;28;20574;-73
2023/03/19 05:15:56;;;;;;;3.13;2.00;;;;;;;8.37;44.76;95189.41;5040131;28;20047;-73
2023/03/19 05:18:21;;;;;;;4.03;2.30;;;;;;;8.38;45.01;95190.22;5041884;28;20033;-73
2023/03/19 05:20:47;;;;;;;3.05;2.25;;;;;;;8.42;44.50;95197.69;5043213;28;20498;-73
2023/03/19 05:23:12;;;;;;;2.35;2.10;;;;;;;8.42;43.23;95191.53;5043066;28;20036;-73
2023/03/19 05:25:38;;;;;;;3.00;2.20;;;;;;;8.54;44.60;95189.31;5026920;28;20032;-73
2023/03/19 05:28:03;;;;;;;2.72;2.15;;;;;;;8.56;43.97;95188.13;5024405;28;20040;-73
2023/03/19 05:30:29;;;;;;;7.45;2.67;;;;;;;8.30;45.18;95201.72;5039883;28;20504;-73
2023/03/19 05:32:55;;;;;;;5.18;2.40;;;;;;;8.56;44.74;95204.06;5039491;28;20037;-73
2023/03/19 05:35:21;;;;;;;4.15;2.60;;;;;;;8.66;44.47;95203.81;5042570;28;20198;-73
2023/03/19 05:37:47;;;;;;;4.65;2.50;;;;;;;8.64;44.61;95205.00;5040176;28;20108;-73
2023/03/19 05:40:12;;;;;;;7.68;2.80;;;;;;;8.70;44.58;95206.94;5023831;28;20486;-73
2023/03/19 05:42:37;;;;;;;3.45;2.40;;;;;;;8.80;43.96;95210.19;5038662;28;20025;-73
2023/03/19 05:45:04;;;;;;;4.53;2.58;;;;;;;8.86;43.55;95211.31;5040235;28;20206;-73
2023/03/19 05:47:30;;;;;;;3.47;2.55;;;;;;;8.88;43.93;95211.97;5038031;28;20051;-73
2023/03/19 05:49:55;;;;;;;3.45;2.30;;;;;;;8.97;43.58;95215.41;5022175;28;20257;-73
2023/03/19 05:52:20;;;;;;;4.38;2.45;;;;;;;8.99;43.69;95210.75;5038223;28;20132;-73
2023/03/19 05:54:48;;;;;;;3.95;2.03;;;;;;;9.03;43.42;95217.38;5039369;28;20041;-73
2023/03/19 05:57:14;;;;;;;5.68;2.40;;;;;;;9.00;43.83;95220.38;5039623;28;20033;-73
2023/03/19 05:59:40;;;;;;;3.78;2.10;;;;;;;9.10;43.56;95219.28;5021704;28;20061;-73
2023/03/19 06:02:06;;;;;;;3.53;2.25;;;;;;;9.03;43.60;95221.84;5038705;28;20485;-73
2023/03/19 06:04:31;;;;;;;4.50;2.20;;;;;;;9.17;43.15;95222.88;5039306;28;20140;-73
2023/03/19 06:06:57;;;;;;;5.53;2.30;;;;;;;9.08;43.54;95224.81;5039520;28;20071;-73
2023/03/19 06:09:22;;;;;;;6.60;2.50;;;;;;;9.15;42.75;95228.38;5040279;28;20041;-73
2023/03/19 06:11:48;;;;;;;5.47;2.45;;;;;;;9.28;43.09;95230.44;5037098;28;20041;-73
2023/03/19 06:14:13;;;;;;;3.67;2.33;;;;;;;9.26;42.66;95232.47;5038182;28;20254;-73
2023/03/19 06:16:38;;;;;;;5.00;2.40;;;;;;;9.32;42.78;95231.72;5053451;28;20037;-73
2023/03/19 06:19:04;;;;;;;4.65;2.30;;;;;;;9.25;42.96;95233.44;5039422;28;20033;-73
2023/03/19 06:21:30;;;;;;;5.63;2.55;;;;;;;9.38;42.77;95234.69;5040284;28;20059;-73
2023/03/19 06:23:55;;;;;;;4.03;2.50;;;;;;;9.35;42.49;95238.50;5040654;28;20529;-73
2023/03/19 06:26:21;;;;;;;6.47;2.42;;;;;;;8.82;43.99;95242.72;5039106;28;20282;-73
2023/03/19 06:28:47;;;;;;;4.03;2.25;;;;;;;9.04;43.85;95232.28;5040491;28;20044;-73
2023/03/19 06:31:12;;;;;;;4.35;2.20;;;;;;;9.28;43.57;95235.75;5037554;28;20076;-73
2023/03/19 06:33:38;;;;;;;3.58;2.50;;;;;;;9.48;42.27;95248.53;5039067;28;20540;-73
2023/03/19 06:36:03;;;;;;;3.83;2.40;;;;;;;9.39;42.75;95237.13;5038227;28;20062;-73
2023/03/19 06:38:29;;;;;;;4.93;2.25;;;;;;;9.61;42.43;95252.41;5038267;28;20057;-73
2023/03/19 06:40:54;;;;;;;4.93;2.67;;;;;;;9.64;42.06;95252.03;5037018;28;20076;-73
2023/03/19 06:43:20;;;;;;;4.13;2.60;;;;;;;9.48;42.33;95251.19;5039186;28;20043;-73
2023/03/19 06:45:46;;;;;;;4.45;2.70;;;;;;;9.51;42.71;95255.31;5037792;28;20053;-73
2023/03/19 06:48:11;;;;;;;4.90;2.67;;;;;;;9.26;43.05;95252.88;5038626;28;20689;-73
2023/03/19 06:50:37;;;;;;;4.43;2.45;;;;;;;9.29;43.07;95253.31;5038584;28;20029;-73
2023/03/19 06:53:03;;;;;;;5.05;2.42;;;;;;;8.63;44.69;95259.06;5039203;28;20056;-73
2023/03/19 06:55:29;;;;;;;8.32;2.80;;;;;;;8.77;44.60;95250.38;5037483;28;20060;-73
2023/03/19 06:57:55;;;;;;;4.32;2.30;;;;;;;9.27;43.53;95254.53;5037910;28;20378;-73
2023/03/19 07:00:20;;;;;;;5.25;2.60;;;;;;;9.56;42.75;95259.06;5035791;28;20374;-73
2023/03/19 07:02:46;;;;;;;6.35;2.70;;;;;;;9.75;42.10;95256.91;5036978;28;20155;-73
2023/03/19 07:05:11;;;;;;;4.88;2.50;;;;;;;9.79;42.08;95255.53;5036999;28;20037;-73
2023/03/19 07:07:37;;;;;;;5.40;2.17;;;;;;;9.86;41.71;95252.97;5035839;28;20131;-73
2023/03/19 07:10:02;;;;;;;4.90;2.30;;;;;;;9.98;41.78;95261.34;5038816;28;20230;-73
2023/03/19 07:12:28;;;;;;;5.90;2.78;;;;;;;9.85;42.01;95268.13;5034295;28;20037;-73
2023/03/19 07:14:56;;;;;;;4.53;2.20;;;;;;;9.32;43.29;95262.81;5037383;28;20489;-73
2023/03/19 07:17:22;;;;;;;7.78;2.50;;;;;;;9.86;42.30;95260.94;5038157;28;20151;-73
2023/03/19 07:19:48;;;;;;;4.20;2.17;;;;;;;9.94;42.27;95266.22;5037323;28;20295;-73
2023/03/19 07:22:13;;;;;;;4.70;2.20;;;;;;;10.08;42.52;95269.06;5039003;28;20449;-73
2023/03/19 07:24:38;;;;;;;4.45;2.20;;;;;;;10.20;41.73;95266.78;5038628;28;20036;-73
2023/03/19 07:27:04;;;;;;;3.72;2.33;;;;;;;10.19;42.06;95268.63;5037918;28;20036;-73
2023/03/19 07:29:30;;;;;;;4.57;2.28;;;;;;;10.09;42.27;95271.56;5038164;28;20060;-73
2023/03/19 07:31:55;;;;;;;5.05;2.22;;;;;;;9.95;42.54;95277.66;5037748;28;20502;-73
2023/03/19 07:34:20;;;;;;;4.93;2.42;;;;;;;9.97;42.29;95279.13;5019123;28;20037;-73
2023/03/19 07:36:46;;;;;;;4.90;2.20;;;;;;;9.75;43.01;95282.69;5037957;28;20075;-73
2023/03/19 07:39:11;;;;;;;3.63;2.17;;;;;;;8.97;44.40;95281.78;5037678;28;20520;-73
2023/03/19 07:41:37;;;;;;;4.20;2.20;;;;;;;9.70;43.65;95283.22;5035197;28;20032;-73
2023/03/19 07:44:02;;;;;;;4.50;2.40;;;;;;;8.69;45.62;95284.91;5036956;28;20079;-73
2023/03/19 07:46:28;;;;;;;3.55;2.28;;;;;;;8.04;46.56;95285.84;5034931;28;20592;-73
2023/03/19 07:48:53;;;;;;;3.67;2.00;;;;;;;8.66;46.04;95291.41;5037247;28;20041;-73
2023/03/19 07:51:19;;;;;;;3.45;2.00;;;;;;;9.18;45.37;95288.31;5036437;28;20052;-73
2023/03/19 07:53:44;;;;;;;5.18;2.35;;;;;;;9.74;43.53;95284.50;5035465;28;20036;-73
2023/03/19 07:56:10;;;;;;;4.15;2.20;;;;;;;8.87;45.49;95295.25;5035491;28;20547;-73
2023/03/19 07:58:36;;;;;;;3.35;2.20;;;;;;;9.55;45.33;95286.66;5036201;28;20028;-73
2023/03/19 08:01:01;;;;;;;3.45;2.33;;;;;;;9.95;42.96;95289.13;5035785;28;20029;-73
2023/03/19 08:03:28;;;;;;;4.18;2.22;;;;;;;9.44;44.38;95287.09;5036842;28;20563;-73
2023/03/19 08:05:53;;;;;;;3.75;2.28;;;;;;;9.44;44.18;95285.28;5037537;28;20544;-73
2023/03/19 08:08:18;;;;;;;4.47;2.30;;;;;;;8.96;45.42;95285.47;5034960;28;20037;-73
2023/03/19 08:10:44;;;;;;;4.85;2.28;;;;;;;7.94;47.34;95302.91;5037931;28;20025;-73
2023/03/19 08:13:09;;;;;;;3.72;2.05;;;;;;;8.38;47.27;95301.63;5039197;28;20032;-73
2023/03/19 08:15:36;;;;;;;2.75;2.10;;;;;;;8.66;46.53;95293.22;5036599;28;20089;-73
2023/03/19 08:18:02;;;;;;;2.83;2.05;;;;;;;9.06;45.65;95295.84;5037222;28;20083;-73
2023/03/19 08:20:28;;;;;;;3.78;2.20;;;;;;;9.29;45.61;95290.53;5019773;28;20301;-73
2023/03/19 08:22:53;;;;;;;4.40;2.05;;;;;;;9.50;45.17;95302.34;5034872;28;20431;-73
2023/03/19 08:25:19;;;;;;;2.08;1.90;;;;;;;9.46;44.88;95295.72;5036062;28;20071;-73
2023/03/19 08:27:44;;;;;;;2.13;1.92;;;;;;;8.98;45.75;95301.22;5035765;28;20492;-73
2023/03/19 08:30:10;;;;;;;2.78;2.10;;;;;;;8.84;46.49;95302.75;5037837;28;20033;-73
2023/03/19 08:32:36;;;;;;;2.08;1.80;;;;;;;9.44;45.64;95297.72;5040670;28;20069;-73
2023/03/19 08:35:02;;;;;;;3.28;1.90;;;;;;;8.37;48.78;95313.25;5027968;28;20112;-73
2023/03/19 08:37:27;;;;;;;4.22;2.40;;;;;;;7.71;51.32;95306.25;5041282;28;20039;-73
2023/03/19 08:39:53;;;;;;;4.82;2.35;;;;;;;8.69;47.74;95309.63;5038199;28;20076;-73
2023/03/19 08:42:18;;;;;;;3.35;1.70;;;;;;;9.03;47.72;95317.44;5038901;28;20025;-73
2023/03/19 08:44:44;;;;;;;3.08;1.80;;;;;;;8.72;48.20;95313.78;5039644;28;20041;-73
2023/03/19 08:47:10;;;;;;;2.97;1.90;;;;;;;9.58;46.37;95306.75;5040569;28;20045;-73
2023/03/19 08:49:36;;;;;;;1.88;1.65;;;;;;;8.39;47.97;95324.50;5041423;28;20381;-73
2023/03/19 08:52:01;;;;;;;1.92;1.75;;;;;;;9.11;47.02;95320.03;5039246;28;20048;-73
2023/03/19 08:54:27;;;;;;;3.53;1.75;;;;;;;9.75;45.84;95312.75;5041172;28;20102;-73
2023/03/19 08:56:52;;;;;;;2.33;1.55;;;;;;;9.73;45.84;95322.75;5039138;28;20045;-73
2023/03/19 08:59:18;;;;;;;2.60;1.92;;;;;;;8.13;48.89;95330.91;5039107;28;20493;-73
2023/03/19 09:01:43;;;;;;;2.00;1.80;;;;;;;9.06;48.34;95323.25;5039594;28;20565;-73
2023/03/19 09:04:09;;;;;;;3.50;2.05;;;;;;;9.30;47.18;95325.91;5039996;28;20032;-73
2023/03/19 09:06:34;;;;;;;2.10;1.88;;;;;;;9.39;47.36;95324.00;5040483;28;20040;-72
2023/03/19 09:09:00;;;;;;;3.17;2.08;;;;;;;9.19;47.68;95324.47;5039490;28;20044;-73
2023/03/19 09:11:25;;;;;;;3.05;1.80;;;;;;;9.44;47.98;95329.59;5037891;28;20040;-73
2023/03/19 09:13:51;;;;;;;3.75;1.98;;;;;;;9.95;46.64;95326.34;5038814;28;20036;-73
2023/03/19 09:16:16;;;;;;;3.05;2.00;;;;;;;10.33;45.66;95327.31;5040041;28;20071;-73
2023/03/19 09:18:42;;;;;;;2.13;1.92;;;;;;;9.37;47.42;95332.16;5042739;28;20029;-73
2023/03/19 09:21:07;;;;;;;2.30;1.70;;;;;;;8.89;48.47;95342.88;5039178;28;20021;-73
2023/03/19 09:23:32;;;;;;;2.53;1.80;;;;;;;9.88;47.11;95329.91;5041899;28;20457;-73
2023/03/19 09:25:58;;;;;;;1.98;1.88;;;;;;;10.24;45.67;95342.56;5041544;28;20090;-73
2023/03/19 09:28:23;;;;;;;1.92;1.63;;;;;;;10.29;46.14;95339.34;5039142;28;20267;-73
2023/03/19 09:30:49;;;;;;;1.85;1.73;;;;;;;9.68;46.14;95338.38;5023639;28;20045;-73
2023/03/19 09:33:15;;;;;;;2.08;1.80;;;;;;;8.88;49.14;95346.53;5040670;28;20044;-73
2023/03/19 09:35:41;;;;;;;2.08;1.80;;;;;;;9.88;46.88;95338.72;5037661;28;20036;-73
2023/03/19 09:38:06;;;;;;;2.60;1.90;;;;;;;9.65;46.65;95346.75;5040077;28;20039;-73
2023/03/19 09:40:40;;;;;;;2.15;1.73;;;;;;;10.15;46.57;95343.63;5038973;28;20045;-73
2023/03/19 09:43:25;;;;;;;1.85;1.75;;;;;;;10.74;45.36;95347.31;5037278;28;20341;-73
2023/03/19 09:45:50;;;;;;;2.58;1.80;;;;;;;10.90;44.76;95342.78;5039702;28;20372;-73
2023/03/19 09:48:18;;;;;;;3.60;1.77;;;;;;;11.19;43.30;95349.09;5021027;28;20064;-73
2023/03/19 09:50:45;;;;;;;5.28;1.80;;;;;;;10.88;45.57;95343.78;5021491;28;20464;-73
2023/03/19 09:53:22;;;;;;;2.20;1.73;;;;;;;11.40;43.79;95345.63;5022819;28;20025;-73
2023/03/19 09:55:51;;;;;;;2.63;1.90;;;;;;;12.05;43.30;95350.06;5022241;28;20494;-73
2023/03/19 09:58:18;;;;;;;4.82;1.77;;;;;;;12.07;42.83;95353.38;5039970;28;20040;-73
2023/03/19 10:00:47;;;;;;;3.53;1.80;;;;;;;11.97;42.73;95344.88;5031547;28;20063;-73
2023/03/19 10:03:40;;;;;;;2.33;1.83;;;;;;;12.02;42.46;95345.94;5039418;28;20094;-73
2023/03/19 10:06:09;;;;;;;4.63;2.28;;;;;;;11.67;42.43;95353.03;5040730;28;20415;-73
2023/03/19 10:08:59;;;;;;;3.25;1.95;;;;;;;9.72;47.71;95347.66;5039787;28;20083;-73
2023/03/19 10:11:49;;;;;;;3.05;2.13;;;;;;;11.03;43.75;95361.59;5039051;28;20045;-73
2023/03/19 10:14:25;;;;;;;3.55;2.05;;;;;;;10.07;45.89;95355.19;5040325;28;20401;-73
2023/03/19 10:16:51;;;;;;;4.68;2.15;;;;;;;10.00;46.73;95355.06;5038031;28;20091;-73
2023/03/19 10:19:20;;;;;;;3.58;2.00;;;;;;;10.44;45.54;95360.66;5038749;28;20127;-72
2023/03/19 10:21:55;;;;;;;4.50;1.90;;;;;;;10.62;45.20;95366.41;5021580;28;20032;-73
2023/03/19 10:24:42;;;;;;;4.63;2.40;;;;;;;9.82;47.27;95364.19;5037855;28;20041;-73
2023/03/19 10:27:18;;;;;;;3.58;1.90;;;;;;;10.88;45.33;95358.94;5037629;28;20041;-72
2023/03/19 10:29:43;;;;;;;2.47;1.77;;;;;;;10.05;47.00;95360.69;5023206;28;20063;-73
2023/03/19 10:32:19;;;;;;;3.42;1.92;;;;;;;10.59;46.87;95365.97;5037623;28;20033;-73
2023/03/19 10:34:49;;;;;;;1.67;1.50;;;;;;;10.87;46.48;95371.44;5037441;28;20295;-72
2023/03/19 10:37:21;;;;;;;1.67;1.35;;;;;;;8.12;51.10;95375.16;5037989;28;20052;-73
2023/03/19 10:39:48;;;;;;;1.80;1.30;;;;;;;8.90;50.08;95379.03;5038045;28;20037;-73
2023/03/19 10:42:50;;;;;;;2.63;1.70;;;;;;;9.12;48.65;95380.13;5037253;28;20118;-73
2023/03/19 10:45:35;;;;;;;2.75;1.65;;;;;;;9.65;49.19;95381.28;5038778;28;20409;-73
2023/03/19 10:48:01;;;;;;;1.48;0.75;;;;;;;7.99;50.92;95386.25;5020899;28;20805;-73
2023/03/19 10:50:37;;;;;;;0.73;0.47;;;;;;;10.19;45.85;95369.72;5036683;28;20032;-72
2023/03/19 10:53:12;;;;;;;1.10;0.60;;;;;;;10.19;46.57;95387.50;5019705;28;20080;-73
2023/03/19 10:55:37;;;;;;;0.88;0.80;;;;;;;10.60;45.07;95375.59;5034333;28;20048;-73
2023/03/19 10:58:15;;;;;;;0.70;0.60;;;;;;;10.59;45.07;95385.44;5038944;28;20446;-73
2023/03/19 11:00:40;;;;;;;0.40;0.40;;;;;;;9.29;47.44;95383.50;5036020;28;20740;-73
2023/03/19 11:03:26;;;;;;;0.32;0.32;;;;;;;9.31;46.78;95378.84;5039039;28;20025;-72
2023/03/19 11:05:54;;;;;;;0.47;0.40;;;;;;;9.93;46.47;95370.91;5024100;28;20039;-73
2023/03/19 11:08:19;;;;;;;;;;;;;;;10.71;44.51;95366.34;5020082;28;20068;-73
2023/03/19 11:10:46;;;;;;;1.35;0.60;;;;;;;10.44;45.45;95369.44;5038121;28;20585;-72
2023/03/19 11:13:20;;;;;;;0.60;0.60;;;;;;;11.09;45.08;95370.72;5033349;28;20489;-73
2023/03/19 11:15:46;;;;;;;0.70;0.50;;;;;;;10.03;46.14;95378.63;5025251;28;20042;-72
2023/03/19 11:18:27;;;;;;;0.82;0.73;;;;;;;10.52;45.88;95373.03;5038550;28;20517;-73
2023/03/19 11:21:03;;;;;;;0.90;0.85;;;;;;;11.09;45.08;95374.19;5038252;28;20052;-73
2023/03/19 11:23:29;;;;;;;0.60;0.60;;;;;;;10.46;46.07;95372.75;5034729;28;20732;-73
2023/03/19 11:25:57;;;;;;;1.00;0.90;;;;;;;11.16;44.52;95365.44;5020505;28;20048;-73
2023/03/19 11:28:24;;;;;;;1.15;0.60;;;;;;;11.52;43.92;95365.41;5036604;28;20041;-73
2023/03/19 11:31:14;;;;;;;0.57;0.57;;;;;;;11.59;43.09;95365.47;5035598;28;20140;-72
2023/03/19 11:34:10;;;;;;;1.00;0.60;;;;;;;11.45;43.69;95361.03;5036126;28;20048;-73
2023/03/19 11:36:38;;;;;;;0.77;0.68;;;;;;;9.83;46.61;95368.50;5038267;28;20577;-73
2023/03/19 11:39:04;;;;;;;;;;;;;;;9.87;47.62;95365.47;5039160;28;20665;-73
2023/03/19 11:41:53;;;;;;;1.27;0.80;;;;;;;10.03;48.10;95369.84;5036775;28;20086;-73